Time;durP1;ratioP1;P1;durP2;ratioP2;P2;SDS_P1;SDS_P2;PMS_P1;PMS_P2;Temp;Humidity;BMP_temperature;BMP_pressure;BME280_temperature;BME280_humidity;BME280_pressure;Samples;Min_cycle;Max_cycle;Signal;HPM_P1;HPM_P2
2022/10/14 00:01:54;;;;;;;;;;;;;;;14.39;100.00;98104.75;5080320;28;19925;-72
2022/10/14 00:04:21;;;;;;;;;;;;;;;14.52;100.00;98111.34;5078300;28;19959;-72
2022/10/14 00:06:48;;;;;;;;;;;;;;;14.29;100.00;98095.97;5076165;28;19944;-71
2022/10/14 00:09:15;;;;;;;;;;;;;;;14.18;100.00;98105.16;5075908;28;19945;-71
2022/10/14 00:11:41;;;;;;;;;;;;;;;13.98;100.00;98098.91;5079315;28;19959;-72
2022/10/14 00:14:08;;;;;;;;;;;;;;;13.87;100.00;98100.03;5094856;28;19924;-71
2022/10/14 00:16:36;;;;;;;;;;;;;;;13.92;100.00;98108.06;5067763;28;19936;-71
2022/10/14 00:19:03;;;;;;;;;;;;;;;14.10;100.00;98108.47;5075710;28;19924;-71
2022/10/14 00:21:30;;;;;;;;;;;;;;;14.14;100.00;98101.47;5077925;28;19929;-71
2022/10/14 00:23:58;;;;;;;;;;;;;;;14.16;100.00;98110.03;5079832;28;19968;-71
2022/10/14 00:26:25;;;;;;;;;;;;;;;14.26;100.00;98110.75;5077751;28;19932;-72
2022/10/14 00:28:52;;;;;;;;;;;;;;;14.39;100.00;98120.88;5079395;28;20279;-72
2022/10/14 00:31:18;;;;;;;;;;;;;;;14.51;100.00;98117.81;5093600;28;19964;-71
2022/10/14 00:33:45;;;;;;;;;;;;;;;14.57;100.00;98112.13;5076148;28;20505;-73
2022/10/14 00:36:13;;;;;;;;;;;;;;;14.59;100.00;98109.94;5076396;28;20003;-73
2022/10/14 00:38:39;;;;;;;;;;;;;;;14.55;100.00;98108.91;5079494;28;19991;-71
2022/10/14 00:41:08;;;;;;;;;;;;;;;14.61;100.00;98112.34;5079207;28;19924;-71
2022/10/14 00:43:50;;;;;;;;;;;;;;;14.42;100.00;98103.41;5067132;28;19933;-73
2022/10/14 00:46:17;;;;;;;;;;;;;;;14.40;100.00;98110.91;5076687;28;19971;-73
2022/10/14 00:48:43;;;;;;;;;;;;;;;14.30;100.00;98102.91;5078700;28;20499;-73
2022/10/14 00:51:10;;;;;;;;;;;;;;;14.25;100.00;98109.16;5077413;28;19924;-72
2022/10/14 00:53:37;;;;;;;;;;;;;;;14.42;100.00;98104.19;5074946;28;19924;-72
2022/10/14 00:56:05;;;;;;;;;;;;;;;14.52;100.00;98114.03;5074780;28;19929;-72
2022/10/14 00:58:32;;;;;;;;;;;;;;;14.49;100.00;98106.53;5078054;28;19931;-72
2022/10/14 01:00:59;;;;;;;;;;;;;;;14.36;100.00;98104.53;5078408;28;19932;-73
2022/10/14 01:03:25;;;;;;;;;;;;;;;14.29;100.00;98112.06;5076890;28;19972;-73
2022/10/14 01:05:57;;;;;;;;;;;;;;;14.41;100.00;98109.84;5075445;28;19963;-71
2022/10/14 01:08:27;;;;;;;;;;;;;;;14.34;100.00;98114.75;5077068;28;19988;-73
2022/10/14 01:11:00;;;;;;;;;;;;;;;14.17;100.00;98108.97;5078294;28;19958;-71
2022/10/14 01:13:28;;;;;;;;;;;;;;;14.03;100.00;98112.28;5076023;28;19924;-71
2022/10/14 01:16:01;;;;;;;;;;;;;;;14.04;100.00;98111.19;5074862;28;19956;-72
2022/10/14 01:18:35;;;;;;;;;;;;;;;13.97;100.00;98118.75;5077177;28;20012;-73
2022/10/14 01:21:09;;;;;;;;;;;;;;;13.84;100.00;98105.97;5078205;28;19930;-71
2022/10/14 01:23:46;;;;;;;;;;;;;;;13.74;100.00;98113.28;5067808;28;19925;-71
2022/10/14 01:26:23;;;;;;;;;;;;;;;13.62;100.00;98115.50;5075311;28;19988;-71
2022/10/14 01:28:54;;;;;;;;;;;;;;;13.59;100.00;98116.84;5078128;28;19992;-71
2022/10/14 01:31:23;;;;;;;;;;;;;;;13.70;100.00;98120.28;5068855;28;19999;-72
2022/10/14 01:33:52;;;;;;;;;;;;;;;13.70;100.00;98113.03;5078153;28;19975;-72
2022/10/14 01:36:21;;;;;;;;;;;;;;;13.67;100.00;98113.59;5076677;28;19984;-71
2022/10/14 01:38:50;;;;;;;;;;;;;;;13.81;100.00;98114.56;5074757;28;19924;-71
2022/10/14 01:41:19;;;;;;;;;;;;;;;13.85;100.00;98110.25;5075439;28;19975;-71
2022/10/14 01:43:47;;;;;;;;;;;;;;;13.85;100.00;98112.94;5077591;28;19954;-72
2022/10/14 01:46:14;;;;;;;;;;;;;;;13.90;100.00;98104.84;5076898;28;19970;-71
2022/10/14 01:48:45;;;;;;;;;;;;;;;13.87;100.00;98110.78;5074083;28;19932;-72
2022/10/14 01:51:14;;;;;;;;;;;;;;;13.91;100.00;98109.13;5074785;28;20665;-72
2022/10/14 01:53:43;;;;;;;;;;;;;;;13.89;100.00;98099.78;5080534;28;19933;-71
2022/10/14 01:56:11;;;;;;;;;;;;;;;13.83;100.00;98095.53;5074012;28;19996;-72
2022/10/14 01:58:38;;;;;;;;;;;;;;;13.73;100.00;98093.69;5077756;28;20003;-72
2022/10/14 02:01:05;;;;;;;;;;;;;;;13.62;100.00;98092.16;5077370;28;19929;-72
2022/10/14 02:03:38;;;;;;;;;;;;;;;13.59;100.00;98090.00;5074422;28;19967;-72
2022/10/14 02:06:08;;;;;;;;;;;;;;;13.58;100.00;98093.00;5074148;28;19929;-73
2022/10/14 02:08:38;;;;;;;;;;;;;;;13.49;100.00;98090.88;5065628;28;20402;-72
2022/10/14 02:11:07;;;;;;;;;;;;;;;13.46;100.00;98087.97;5073321;28;20011;-72
2022/10/14 02:13:40;;;;;;;;;;;;;;;13.41;100.00;98086.09;5076530;28;19925;-72
2022/10/14 02:16:12;;;;;;;;;;;;;;;13.42;100.00;98089.59;5077717;28;20304;-72
2022/10/14 02:18:40;;;;;;;;;;;;;;;13.62;100.00;98084.09;5066871;28;19971;-72
2022/10/14 02:21:12;;;;;;;;;;;;;;;13.85;100.00;98094.16;5073977;28;19992;-71
2022/10/14 02:23:41;;;;;;;;;;;;;;;14.03;100.00;98096.16;5067434;28;19924;-72
2022/10/14 02:26:08;;;;;;;;;;;;;;;14.14;100.00;98085.34;5073638;28;19931;-73
2022/10/14 02:28:36;;;;;;;;;;;;;;;13.97;100.00;98091.91;5065573;28;19951;-73
2022/10/14 02:31:05;;;;;;;;;;;;;;;13.92;100.00;98094.66;5074172;28;19988;-71
2022/10/14 02:33:33;;;;;;;;;;;;;;;13.80;100.00;98088.78;5076994;28;19925;-72
2022/10/14 02:36:01;;;;;;;;;;;;;;;13.75;100.00;98091.53;5077024;28;19991;-72
2022/10/14 02:38:30;;;;;;;;;;;;;;;13.93;100.00;98088.19;5074475;28;19966;-72
2022/10/14 02:40:56;;;;;;;;;;;;;;;14.10;100.00;98101.22;5089064;28;19929;-71
2022/10/14 02:43:23;;;;;;;;;;;;;;;14.25;100.00;98092.22;5075743;28;20460;-71
2022/10/14 02:45:49;;;;;;;;;;;;;;;14.35;100.00;98095.66;5083100;28;19925;-71
2022/10/14 02:48:15;;;;;;;;;;;;;;;14.41;100.00;98096.41;5082206;28;19943;-72
2022/10/14 02:50:42;;;;;;;;;;;;;;;14.23;100.00;98089.03;5079883;28;20015;-72
2022/10/14 02:53:09;;;;;;;;;;;;;;;14.16;100.00;98094.72;5086995;28;20227;-71
2022/10/14 02:55:37;;;;;;;;;;;;;;;14.29;100.00;98095.97;5072027;28;19957;-71
2022/10/14 02:58:03;;;;;;;;;;;;;;;14.31;100.00;98085.72;5079910;28;19960;-72
2022/10/14 03:00:29;;;;;;;;;;;;;;;14.15;100.00;98079.69;5082711;28;19928;-71
2022/10/14 03:02:56;;;;;;;;;;;;;;;14.15;100.00;98086.94;5083410;28;19925;-72
2022/10/14 03:05:22;;;;;;;;;;;;;;;14.14;100.00;98082.66;5081663;28;19987;-72
2022/10/14 03:07:48;;;;;;;;;;;;;;;14.09;100.00;98088.88;5078344;28;19974;-72
2022/10/14 03:10:15;;;;;;;;;;;;;;;14.00;100.00;98075.25;5080830;28;19960;-72
2022/10/14 03:12:42;;;;;;;;;;;;;;;14.00;100.00;98077.13;5083033;28;20420;-72
2022/10/14 03:15:09;;;;;;;;;;;;;;;14.07;100.00;98070.34;5083258;28;19980;-72
2022/10/14 03:17:36;;;;;;;;;;;;;;;13.96;100.00;98079.56;5050332;28;19992;-72
2022/10/14 03:20:03;;;;;;;;;;;;;;;14.08;100.00;98077.31;5075126;28;19988;-71
2022/10/14 03:22:32;;;;;;;;;;;;;;;14.15;100.00;98082.38;5097405;28;20358;-72
2022/10/14 03:24:58;;;;;;;;;;;;;;;14.17;100.00;98082.09;5083194;28;20476;-72
2022/10/14 03:27:25;;;;;;;;;;;;;;;14.12;100.00;98079.44;5081253;28;19924;-71
2022/10/14 03:29:52;;;;;;;;;;;;;;;13.92;100.00;98083.09;5079731;28;20023;-72
2022/10/14 03:32:19;;;;;;;;;;;;;;;13.96;100.00;98079.56;5079282;28;19992;-72
2022/10/14 03:34:45;;;;;;;;;;;;;;;14.07;100.00;98073.03;5083713;28;19962;-71
2022/10/14 03:37:11;;;;;;;;;;;;;;;14.14;100.00;98072.72;5082677;28;20387;-71
2022/10/14 03:39:38;;;;;;;;;;;;;;;13.98;100.00;98074.72;5079312;28;19956;-72
2022/10/14 03:42:04;;;;;;;;;;;;;;;13.94;100.00;98070.19;5079721;28;19928;-72
2022/10/14 03:44:30;;;;;;;;;;;;;;;13.97;100.00;98075.81;5082554;28;19952;-71
2022/10/14 03:46:58;;;;;;;;;;;;;;;14.14;100.00;98077.28;5083039;28;19991;-71
2022/10/14 03:49:24;;;;;;;;;;;;;;;14.19;100.00;98082.59;5080682;28;19983;-72
2022/10/14 03:51:51;;;;;;;;;;;;;;;13.99;100.00;98072.81;5079248;28;20001;-70
2022/10/14 03:54:17;;;;;;;;;;;;;;;13.69;100.00;98075.72;5080241;28;19924;-70
2022/10/14 03:56:43;;;;;;;;;;;;;;;13.77;100.00;98075.16;5078960;28;19958;-70
2022/10/14 03:59:10;;;;;;;;;;;;;;;13.75;100.00;98078.09;5079319;28;20000;-70
2022/10/14 04:01:36;;;;;;;;;;;;;;;13.66;100.00;98074.41;5075847;28;19924;-70
2022/10/14 04:04:04;;;;;;;;;;;;;;;13.80;100.00;98072.69;5076084;28;20015;-70
2022/10/14 04:06:31;;;;;;;;;;;;;;;13.51;100.00;98067.28;5078808;28;19928;-70
2022/10/14 04:08:57;;;;;;;;;;;;;;;13.35;100.00;98052.34;5079513;28;20223;-71
2022/10/14 04:11:23;;;;;;;;;;;;;;;13.33;100.00;98053.69;5077346;28;19924;-70
2022/10/14 04:13:50;;;;;;;;;;;;;;;13.39;100.00;98047.22;5076374;28;19932;-70
2022/10/14 04:16:16;;;;;;;;;;;;;;;13.37;100.00;98046.69;5077186;28;19992;-70
2022/10/14 04:18:42;;;;;;;;;;;;;;;13.30;100.00;98049.69;5079642;28;19988;-70
2022/10/14 04:21:11;;;;;;;;;;;;;;;13.27;100.00;98049.44;5079120;28;19924;-70
2022/10/14 04:23:38;;;;;;;;;;;;;;;13.30;100.00;98043.53;5068906;28;19924;-70
2022/10/14 04:26:05;;;;;;;;;;;;;;;13.21;100.00;98054.03;5074735;28;19991;-69
2022/10/14 04:28:31;;;;;;;;;;;;;;;13.21;100.00;98058.59;5077406;28;19925;-70
2022/10/14 04:30:57;;;;;;;;;;;;;;;13.26;100.00;98047.81;5079199;28;20631;-70
2022/10/14 04:33:24;;;;;;;;;;;;;;;13.12;100.00;98044.94;5077867;28;19924;-70
2022/10/14 04:35:51;;;;;;;;;;;;;;;12.98;100.00;98050.06;5076211;28;19924;-70
2022/10/14 04:38:19;;;;;;;;;;;;;;;13.01;100.00;98051.41;5076788;28;19950;-70
2022/10/14 04:40:45;;;;;;;;;;;;;;;12.98;100.00;98044.72;5077731;28;19948;-69
2022/10/14 04:43:12;;;;;;;;;;;;;;;12.98;100.00;98042.03;5078540;28;19956;-70
2022/10/14 04:45:38;;;;;;;;;;;;;;;13.07;100.00;98036.91;5075544;28;19925;-70
2022/10/14 04:48:04;;;;;;;;;;;;;;;13.10;100.00;98051.66;5075507;28;19960;-70
2022/10/14 04:50:31;;;;;;;;;;;;;;;13.17;100.00;98052.16;5094179;28;20004;-70
2022/10/14 04:52:57;;;;;;;;;;;;;;;13.35;100.00;98051.53;5078811;28;20463;-70
2022/10/14 04:55:25;;;;;;;;;;;;;;;13.39;100.00;98050.72;5076987;28;19925;-70
2022/10/14 04:57:51;;;;;;;;;;;;;;;13.54;100.00;98049.81;5075287;28;20378;-71
2022/10/14 05:00:18;;;;;;;;;;;;;;;13.69;100.00;98040.84;5076293;28;19967;-70
2022/10/14 05:02:44;;;;;;;;;;;;;;;13.78;100.00;98039.97;5078856;28;19978;-71
2022/10/14 05:05:10;;;;;;;;;;;;;;;13.50;100.00;98036.16;5079114;28;20146;-71
2022/10/14 05:07:37;;;;;;;;;;;;;;;13.30;100.00;98032.78;5075050;28;19988;-71
2022/10/14 05:10:03;;;;;;;;;;;;;;;13.27;100.00;98028.78;5075561;28;19968;-70
2022/10/14 05:12:31;;;;;;;;;;;;;;;13.33;100.00;98026.88;5077895;28;19944;-71
2022/10/14 05:14:58;;;;;;;;;;;;;;;13.33;100.00;98026.88;5078709;28;19950;-70
2022/10/14 05:17:24;;;;;;;;;;;;;;;13.31;100.00;98029.00;5075844;28;19924;-71
2022/10/14 05:19:50;;;;;;;;;;;;;;;13.19;100.00;98037.41;5074984;28;19924;-71
2022/10/14 05:22:17;;;;;;;;;;;;;;;13.22;100.00;98023.44;5076226;28;19925;-71
2022/10/14 05:24:43;;;;;;;;;;;;;;;13.19;100.00;98020.50;5078112;28;19959;-70
2022/10/14 05:27:09;;;;;;;;;;;;;;;13.26;100.00;98026.38;5078253;28;20019;-70
2022/10/14 05:29:37;;;;;;;;;;;;;;;13.25;100.00;98027.44;5082233;28;19932;-70
2022/10/14 05:32:04;;;;;;;;;;;;;;;13.11;100.00;98024.59;5073555;28;19925;-70
2022/10/14 05:34:30;;;;;;;;;;;;;;;13.13;100.00;98026.97;5077577;28;19954;-70
2022/10/14 05:36:56;;;;;;;;;;;;;;;13.04;100.00;98028.59;5078189;28;19984;-71
2022/10/14 05:39:23;;;;;;;;;;;;;;;12.96;100.00;98022.75;5076328;28;20136;-70
2022/10/14 05:41:49;;;;;;;;;;;;;;;12.97;100.00;98037.75;5074316;28;19967;-70
2022/10/14 05:44:15;;;;;;;;;;;;;;;12.91;100.00;98030.00;5075417;28;19997;-70
2022/10/14 05:46:43;;;;;;;;;;;;;;;12.89;100.00;98030.28;5078190;28;20023;-69
2022/10/14 05:49:10;;;;;;;;;;;;;;;12.91;100.00;98038.84;5093690;28;19924;-69
2022/10/14 05:51:36;;;;;;;;;;;;;;;12.89;100.00;98041.00;5044743;28;20012;-71
2022/10/14 05:54:03;;;;;;;;;;;;;;;12.90;100.00;98044.50;5070911;28;19920;-71
2022/10/14 05:56:29;;;;;;;;;;;;;;;12.95;100.00;98041.78;5075541;28;19932;-69
2022/10/14 05:58:55;;;;;;;;;;;;;;;12.92;100.00;98037.78;5077448;28;19980;-70
2022/10/14 06:01:22;;;;;;;;;;;;;;;13.07;100.00;98041.44;5075904;28;19948;-71
2022/10/14 06:03:50;;;;;;;;;;;;;;;13.31;100.00;98042.41;5074210;28;20507;-70
2022/10/14 06:06:17;;;;;;;;;;;;;;;13.26;100.00;98034.41;5074950;28;19975;-71
2022/10/14 06:08:44;;;;;;;;;;;;;;;13.19;100.00;98040.09;5077454;28;19980;-71
2022/10/14 06:11:10;;;;;;;;;;;;;;;13.29;100.00;98044.59;5077428;28;19924;-70
2022/10/14 06:13:37;;;;;;;;;;;;;;;13.41;100.00;98045.88;5075008;28;20098;-69
2022/10/14 06:16:04;;;;;;;;;;;;;;;13.57;100.00;98049.25;5074068;28;19928;-70
2022/10/14 06:18:30;;;;;;;;;;;;;;;13.73;100.00;98045.38;5076528;28;19928;-70
2022/10/14 06:20:58;;;;;;;;;;;;;;;13.80;100.00;98045.06;5077152;28;19924;-69
2022/10/14 06:23:25;;;;;;;;;;;;;;;13.64;100.00;98047.06;5075132;28;19925;-70
2022/10/14 06:25:51;;;;;;;;;;;;;;;13.55;100.00;98051.41;5073891;28;19980;-69
2022/10/14 06:28:18;;;;;;;;;;;;;;;13.60;100.00;98053.25;5075049;28;19984;-70
2022/10/14 06:30:48;;;;;;;;;;;;;;;13.70;100.00;98054.00;5077282;28;19991;-70
2022/10/14 06:33:15;;;;;;;;;;;;;;;13.61;100.00;98053.00;5076598;28;19956;-70
2022/10/14 06:35:41;;;;;;;;;;;;;;;13.61;100.00;98060.22;5073917;28;19947;-70
2022/10/14 06:38:09;;;;;;;;;;;;;;;13.51;100.00;98059.22;5073713;28;19926;-70
2022/10/14 06:40:35;;;;;;;;;;;;;;;13.53;100.00;98053.56;5065314;28;19932;-69
2022/10/14 06:43:01;;;;;;;;;;;;;;;13.63;100.00;98055.38;5073680;28;20368;-70
2022/10/14 06:45:28;;;;;;;;;;;;;;;13.79;100.00;98054.19;5076126;28;20214;-70
2022/10/14 06:47:54;;;;;;;;;;;;;;;13.89;100.00;98062.19;5092775;28;19924;-70
2022/10/14 06:50:20;;;;;;;;;;;;;;;13.97;100.00;98051.63;5075594;28;19928;-69
2022/10/14 06:52:47;;;;;;;;;;;;;;;14.03;100.00;98055.06;5077214;28;19963;-70
2022/10/14 06:55:15;;;;;;;;;;;;;;;13.93;100.00;98061.31;5076155;28;19925;-70
2022/10/14 06:57:42;;;;;;;;;;;;;;;13.90;100.00;98061.09;5073607;28;19924;-70
2022/10/14 07:00:09;;;;;;;;;;;;;;;13.86;100.00;98060.06;5073594;28;19925;-70
2022/10/14 07:02:37;;;;;;;;;;;;;;;13.87;100.00;98059.75;5065284;28;19952;-70
2022/10/14 07:05:03;;;;;;;;;;;;;;;13.91;100.00;98060.00;5073224;28;19999;-70
2022/10/14 07:07:31;;;;;;;;;;;;;;;13.82;100.00;98059.00;5076007;28;19924;-70
2022/10/14 07:09:58;;;;;;;;;;;;;;;13.86;100.00;98060.88;5075429;28;19997;-71
2022/10/14 07:12:25;;;;;;;;;;;;;;;13.96;100.00;98049.22;5090799;28;19924;-71
2022/10/14 07:14:52;;;;;;;;;;;;;;;13.86;100.00;98044.75;5073245;28;19992;-70
2022/10/14 07:17:18;;;;;;;;;;;;;;;13.81;100.00;98046.66;5074424;28;20381;-70
2022/10/14 07:19:45;;;;;;;;;;;;;;;13.66;100.00;98046.78;5076948;28;19962;-70
2022/10/14 07:22:11;;;;;;;;;;;;;;;13.66;100.00;98047.56;5091416;28;19960;-70
2022/10/14 07:24:38;;;;;;;;;;;;;;;13.72;100.00;98043.78;5092779;28;20365;-71
2022/10/14 07:27:04;;;;;;;;;;;;;;;13.66;100.00;98044.09;5092374;28;19938;-71
2022/10/14 07:29:32;;;;;;;;;;;;;;;13.69;100.00;98032.78;5073932;28;19956;-71
2022/10/14 07:31:58;;;;;;;;;;;;;;;13.67;100.00;98040.34;5075230;28;19989;-71
2022/10/14 07:34:25;;;;;;;;;;;;;;;13.65;100.00;98045.97;5079183;28;20184;-71
2022/10/14 07:36:51;;;;;;;;;;;;;;;13.62;100.00;98045.72;5095785;28;19947;-70
2022/10/14 07:39:17;;;;;;;;;;;;;;;13.73;100.00;98048.06;5079429;28;19957;-70
2022/10/14 07:41:44;;;;;;;;;;;;;;;13.68;100.00;98040.03;5076843;28;19935;-70
2022/10/14 07:44:12;;;;;;;;;;;;;;;13.65;100.00;98045.97;5076788;28;19932;-71
2022/10/14 07:46:42;;;;;;;;;;;;;;;13.65;100.00;98045.97;5080183;28;19934;-71
2022/10/14 07:49:11;;;;;;;;;;;;;;;13.73;100.00;98055.31;5080477;28;19924;-72
2022/10/14 07:51:37;;;;;;;;;;;;;;;13.67;100.00;98048.38;5067197;28;19952;-71
2022/10/14 07:54:08;;;;;;;;;;;;;;;13.69;100.00;98049.69;5076614;28;19996;-70
2022/10/14 07:56:35;;;;;;;;;;;;;;;13.65;100.00;98051.34;5080149;28;19931;-70
2022/10/14 07:59:01;;;;;;;;;;;;;;;13.68;100.00;98056.13;5095646;28;19967;-71
2022/10/14 08:01:27;;;;;;;;;;;;;;;13.62;100.00;98061.81;5093163;28;19987;-71
2022/10/14 08:03:55;;;;;;;;;;;;;;;13.61;100.00;98050.31;5075111;28;20036;-71
2022/10/14 08:06:22;;;;;;;;;;;;;;;13.61;100.00;98046.81;5078146;28;19993;-71
2022/10/14 08:08:48;;;;;;;;;;;;;;;13.58;100.00;98042.81;5095497;28;19991;-71
2022/10/14 08:11:16;;;;;;;;;;;;;;;13.57;100.00;98054.63;5079137;28;19924;-71
2022/10/14 08:13:43;;;;;;;;;;;;;;;13.61;100.00;98044.94;5076547;28;19970;-70
2022/10/14 08:16:13;;;;;;;;;;;;;;;13.68;100.00;98045.41;5076981;28;19952;-70
2022/10/14 08:18:39;;;;;;;;;;;;;;;13.64;100.00;98044.38;5068779;28;19960;-70
2022/10/14 08:21:07;;;;;;;;;;;;;;;13.70;100.00;98054.00;5076655;28;19971;-71
2022/10/14 08:23:33;;;;;;;;;;;;;;;13.77;100.00;98051.00;5083259;28;19925;-70
2022/10/14 08:25:59;;;;;;;;;;;;;;;13.78;100.00;98053.41;5076246;28;19936;-70
2022/10/14 08:28:26;;;;;;;;;;;;;;;13.79;100.00;98056.88;5078250;28;19955;-71
2022/10/14 08:30:52;;;;;;;;;;;;;;;13.81;100.00;98044.78;5079317;28;19936;-70
2022/10/14 08:33:19;;;;;;;;;;;;;;;13.83;100.00;98056.03;5078277;28;19925;-71
2022/10/14 08:35:45;;;;;;;;;;;;;;;13.83;100.00;98053.34;5075771;28;19924;-71
2022/10/14 08:38:13;;;;;;;;;;;;;;;13.80;100.00;98051.22;5076329;28;19987;-70
2022/10/14 08:40:49;;;;;;;;;;;;;;;13.88;100.00;98045.28;5079822;28;19992;-70
2022/10/14 08:43:19;;;;;;;;;;;;;;;13.88;100.00;98050.63;5078184;28;19932;-71
2022/10/14 08:45:49;;;;;;;;;;;;;;;13.89;100.00;98054.13;5076011;28;19996;-71
2022/10/14 08:48:17;;;;;;;;;;;;;;;13.89;100.00;98046.06;5076798;28;19960;-71
2022/10/14 08:50:47;;;;;;;;;;;;;;;13.84;100.00;98038.84;5094367;28;20341;-71
2022/10/14 08:53:18;;;;;;;;;;;;;;;13.81;100.00;98043.97;5078581;28;19924;-71
2022/10/14 08:55:46;;;;;;;;;;;;;;;13.82;100.00;98046.38;5075625;28;19925;-71
2022/10/14 08:58:14;;;;;;;;;;;;;;;13.85;100.00;98045.84;5075652;28;19927;-70
2022/10/14 09:00:41;;;;;;;;;;;;;;;13.81;100.00;98039.41;5095085;28;19936;-71
2022/10/14 09:03:15;;;;;;;;;;;;;;;13.83;100.00;98050.66;5079319;28;19925;-71
2022/10/14 09:05:42;;;;;;;;;;;;;;;13.79;100.00;98046.94;5068282;28;19924;-70
2022/10/14 09:08:13;;;;;;;;;;;;;;;13.87;100.00;98050.91;5075193;28;19927;-70
2022/10/14 09:10:42;;;;;;;;;;;;;;;13.93;100.00;98045.22;5066261;28;20000;-70
2022/10/14 09:13:11;;;;;;;;;;;;;;;13.87;100.00;98043.66;5075037;28;19984;-69
2022/10/14 09:15:40;;;;;;;;;;;;;;;13.91;100.00;98049.28;5067350;28;19974;-70
2022/10/14 09:18:10;;;;;;;;;;;;;;;13.95;100.00;98043.06;5075297;28;19925;-70
2022/10/14 09:20:37;;;;;;;;;;;;;;;14.03;100.00;98053.19;5066914;28;19924;-70
2022/10/14 09:23:10;;;;;;;;;;;;;;;14.04;100.00;98038.69;5080946;28;19924;-71
2022/10/14 09:25:39;;;;;;;;;;;;;;;14.11;100.00;98038.38;5067112;28;19925;-70
2022/10/14 09:28:08;;;;;;;;;;;;;;;14.11;100.00;98035.69;5075003;28;20238;-70
2022/10/14 09:30:36;;;;;;;;;;;;;;;14.15;100.00;98042.06;5076704;28;19996;-71
2022/10/14 09:33:04;;;;;;;;;;;;;;;14.17;100.00;98042.63;5078261;28;19932;-70
2022/10/14 09:35:32;;;;;;;;;;;;;;;14.21;100.00;98034.78;5075304;28;20338;-72
2022/10/14 09:37:58;;;;;;;;;;;;;;;14.22;100.00;98028.31;5074846;28;19921;-71
2022/10/14 09:40:28;;;;;;;;;;;;;;;14.25;100.00;98033.13;5076660;28;19925;-70
2022/10/14 09:42:57;;;;;;;;;;;;;;;14.32;100.00;98022.84;5077888;28;19964;-70
2022/10/14 09:45:26;;;;;;;;;;;;;;;14.31;100.00;98037.38;5076091;28;19991;-71
2022/10/14 09:47:55;;;;;;;;;;;;;;;14.27;100.00;98041.69;5074398;28;19935;-71
2022/10/14 09:50:26;;;;;;;;;;;;;;;14.33;100.00;98037.91;5076065;28;19936;-71
2022/10/14 09:52:54;;;;;;;;;;;;;;;14.40;100.00;98038.38;5077741;28;19948;-70
2022/10/14 09:55:23;;;;;;;;;;;;;;;14.42;100.00;98036.22;5075781;28;19955;-70
2022/10/14 09:57:55;;;;;;;;;;;;;;;14.49;100.00;98025.91;5074206;28;19924;-71
2022/10/14 10:00:27;;;;;;;;;;;;;;;14.59;100.00;98028.50;5076380;28;19932;-71
2022/10/14 10:02:55;;;;;;;;;;;;;;;14.59;100.00;98023.13;5078227;28;19929;-70
2022/10/14 10:05:23;;;;;;;;;;;;;;;14.62;100.00;98027.94;5077164;28;20052;-71
2022/10/14 10:08:00;;;;;;;;;;;;;;;14.65;100.00;98026.56;5074991;28;19959;-71
2022/10/14 10:10:29;;;;;;;;;;;;;;;14.74;100.00;98022.16;5075580;28;20340;-70
2022/10/14 10:12:56;;;;;;;;;;;;;;;14.79;100.00;98022.13;5093415;28;19925;-71
2022/10/14 10:15:22;;;;;;;;;;;;;;;14.86;100.00;98020.66;5075328;28;19975;-71
2022/10/14 10:17:50;;;;;;;;;;;;;;;14.90;100.00;98018.19;5075227;28;19932;-71
2022/10/14 10:20:27;;;;;;;;;;;;;;;15.00;100.00;98018.09;5075341;28;19967;-71
2022/10/14 10:22:54;;;;;;;;;;;;;;;14.98;100.00;98028.31;5078080;28;19931;-71
2022/10/14 10:25:27;;;;;;;;;;;;;;;15.05;100.00;98010.75;5077116;28;19925;-71
2022/10/14 10:27:56;;;;;;;;;;;;;;;15.03;100.00;98007.56;5075129;28;19928;-72
2022/10/14 10:30:25;;;;;;;;;;;;;;;15.08;100.00;98003.97;5076275;28;19956;-70
2022/10/14 10:32:59;;;;;;;;;;;;;;;15.09;100.00;97998.31;5076618;28;19924;-70
2022/10/14 10:35:29;;;;;;;;;;;;;;;15.07;100.00;98003.16;5091596;28;20602;-71
2022/10/14 10:38:05;;;;;;;;;;;;;;;15.12;100.00;97994.25;5074062;28;19925;-71
2022/10/14 10:40:34;;;;;;;;;;;;;;;15.20;100.00;97985.50;5077066;28;20127;-71
2022/10/14 10:43:13;;;;;;;;;;;;;;;15.30;100.00;97984.56;5077675;28;19928;-71
2022/10/14 10:45:45;;;;;;;;;;;;;;;15.21;100.00;97991.69;5066256;28;19971;-70
2022/10/14 10:48:17;;;;;;;;;;;;;;;15.18;100.00;97993.09;5073987;28;19988;-71
2022/10/14 10:50:47;;;;;;;;;;;;;;;15.26;100.00;97988.94;5077169;28;19934;-70
2022/10/14 10:53:39;;;;;;;;;;;;;;;15.27;100.00;97980.56;5077121;28;19963;-70
2022/10/14 10:56:12;;;;;;;;;;;;;;;15.32;100.00;97971.66;5073991;28;20043;-71
2022/10/14 10:58:47;;;;;;;;;;;;;;;15.32;100.00;97975.13;5066232;28;20001;-72
2022/10/14 11:01:30;;;;;;;;;;;;;;;15.47;100.00;97971.41;5074430;28;19925;-72
2022/10/14 11:04:04;;;;;;;;;;;;;;;15.52;100.00;97968.66;5093724;28;19924;-72
2022/10/14 11:12:14;;;;;;;;;;;;;;;15.68;100.00;97950.38;5081166;28;19987;-71
2022/10/14 11:14:49;;;;;;;;;;;;;;;15.57;100.00;97950.53;5069852;28;19964;-71
2022/10/14 11:17:20;;;;;;;;;;;;;;;15.63;100.00;97945.88;5078492;28;19936;-71
2022/10/14 11:19:52;;;;;;;;;;;;;;;15.65;100.00;97938.31;5080974;28;19987;-70
2022/10/14 11:22:29;;;;;;;;;;;;;;;15.75;100.00;97930.06;5079323;28;19960;-71
2022/10/14 11:25:01;;;;;;;;;;;;;;;15.83;100.00;97925.88;5080763;28;20070;-71
2022/10/14 11:27:30;;;;;;;;;;;;;;;15.74;100.00;97923.06;5078803;28;20639;-71
2022/10/14 11:30:13;;;;;;;;;;;;;;;15.80;100.00;97918.41;5077353;28;19925;-71
2022/10/14 11:32:47;;;;;;;;;;;;;;;15.83;100.00;97902.44;5069153;28;19925;-70
2022/10/14 11:35:20;;;;;;;;;;;;;;;15.78;100.00;97899.84;5077315;28;19925;-70
2022/10/14 11:37:57;;;;;;;;;;;;;;;15.87;100.00;97906.16;5080544;28;19924;-71
2022/10/14 11:40:26;;;;;;;;;;;;;;;15.84;100.00;97900.56;5078919;28;19962;-71
2022/10/14 11:43:00;;;;;;;;;;;;;;;15.92;100.00;97906.06;5076735;28;19939;-71
2022/10/14 11:45:39;;;;;;;;;;;;;;;15.89;100.00;97900.47;5079283;28;19932;-71
2022/10/14 11:48:10;;;;;;;;;;;;;;;15.93;100.00;97893.38;5080341;28;19924;-71
2022/10/14 11:50:40;;;;;;;;;;;;;;;15.90;100.00;97900.19;5068498;28;19984;-71
2022/10/14 11:53:12;;;;;;;;;;;;;;;15.99;100.00;97890.31;5082924;28;19936;-72
2022/10/14 11:55:42;;;;;;;;;;;;;;;15.93;100.00;97891.50;5056025;28;19925;-70
2022/10/14 11:58:13;;;;;;;;;;;;;;;15.92;100.00;97883.69;5073283;28;19931;-71
2022/10/14 12:03:37;;;;;;;;;;;;;;;16.16;100.00;97879.72;5078895;28;19924;-71
2022/10/14 12:06:09;;;;;;;;;;;;;;;16.17;100.00;97865.16;5095795;28;19992;-71
2022/10/14 12:08:49;;;;;;;;;;;;;;;16.20;100.00;97863.75;5076719;28;19925;-71
2022/10/14 12:11:27;;;;;;;;;;;;;;;16.27;100.00;97852.59;5075797;28;19956;-71
2022/10/14 12:14:06;;;;;;;;;;;;;;;16.31;100.00;97846.28;5078227;28;19984;-71
2022/10/14 12:16:33;;;;;;;;;;;;;;;16.35;100.00;97841.09;5075930;28;19981;-71
2022/10/14 12:19:01;;;;;;;;;;;;;;;16.42;100.00;97841.50;5075649;28;19925;-71
2022/10/14 12:21:32;;;;;;;;;;;;;;;16.44;100.00;97832.00;5078465;28;20579;-71
2022/10/14 12:24:03;;;;;;;;;;;;;;;16.55;100.00;97832.63;5079843;28;19948;-71
2022/10/14 12:26:41;;;;;;;;;;;;;;;16.66;100.00;97832.06;5078640;28;19928;-71
2022/10/14 12:29:12;;;;;;;;;;;;;;;16.64;100.00;97839.69;5079651;28;19925;-71
2022/10/14 12:31:39;;;;;;;;;;;;;;;16.66;100.00;97833.97;5068030;28;19925;-71
2022/10/14 12:34:17;;;;;;;;;;;;;;;16.62;100.00;97833.78;5074999;28;20252;-71
2022/10/14 12:36:49;;;;;;;;;;;;;;;16.60;100.00;97824.41;5069062;28;19964;-71
2022/10/14 12:39:23;;;;;;;;;;;;;;;16.65;100.00;97818.88;5075500;28;19986;-71
2022/10/14 12:41:54;;;;;;;;;;;;;;;16.55;100.00;97822.63;5079275;28;19924;-71
2022/10/14 12:44:22;;;;;;;;;;;;;;;16.74;100.00;97825.94;5077851;28;19924;-71
2022/10/14 12:46:50;;;;;;;;;;;;;;;16.74;100.00;97830.56;5075816;28;19931;-71
2022/10/14 12:49:18;;;;;;;;;;;;;;;16.61;100.00;97832.19;5092078;28;19924;-71
2022/10/14 12:51:53;;;;;;;;;;;;;;;16.69;100.00;97827.97;5079287;28;20020;-71